createdAt,value
2018-07-28T00:00:14.381Z,27.60
2018-07-28T00:02:42.801Z,27.60
2018-07-28T00:05:11.209Z,27.50
2018-07-28T00:07:39.614Z,27.50
2018-07-28T00:10:10.524Z,27.50
2018-07-28T00:12:38.913Z,27.50
2018-07-28T00:15:09.849Z,27.50
2018-07-28T00:17:38.725Z,27.40
2018-07-28T00:20:08.750Z,27.50
2018-07-28T00:22:37.346Z,27.40
2018-07-28T00:25:07.134Z,27.40
2018-07-28T00:27:35.610Z,27.50
2018-07-28T00:30:04.811Z,27.40
2018-07-28T00:32:33.177Z,27.40
2018-07-28T00:35:01.677Z,27.40
2018-07-28T00:37:30.154Z,27.50
2018-07-28T00:39:58.545Z,27.50
2018-07-28T00:42:26.911Z,27.40
2018-07-28T00:44:55.357Z,27.50
2018-07-28T00:47:23.780Z,27.50
2018-07-28T00:49:52.101Z,27.50
2018-07-28T00:52:20.477Z,27.40
2018-07-28T00:54:48.908Z,27.40
2018-07-28T00:57:17.381Z,27.30
2018-07-28T00:59:45.887Z,27.30
2018-07-28T01:02:14.323Z,27.40
2018-07-28T01:04:42.690Z,27.30
2018-07-28T01:07:11.107Z,27.30
2018-07-28T01:09:39.513Z,27.20
2018-07-28T01:12:07.924Z,27.20
2018-07-28T01:14:36.328Z,27.00
2018-07-28T01:17:04.757Z,27.00
2018-07-28T01:19:33.191Z,27.00
2018-07-28T01:22:01.549Z,27.10
2018-07-28T01:24:29.946Z,27.10
2018-07-28T01:29:26.413Z,26.90
2018-07-28T01:31:54.793Z,26.80
2018-07-28T01:34:23.141Z,26.80
2018-07-28T01:36:51.446Z,26.70
2018-07-28T01:39:19.765Z,26.70
2018-07-28T01:41:48.053Z,26.90
2018-07-28T01:44:16.587Z,27.20
2018-07-28T01:46:44.879Z,27.50
2018-07-28T01:49:13.208Z,27.30
2018-07-28T01:51:41.553Z,27.00
2018-07-28T01:54:09.944Z,26.70
2018-07-28T01:56:38.237Z,26.50
2018-07-28T01:59:06.659Z,26.60
2018-07-28T02:01:35.010Z,26.60
2018-07-28T02:04:03.365Z,26.30
2018-07-28T02:06:31.698Z,26.60
2018-07-28T02:09:00.010Z,26.60
2018-07-28T02:11:28.367Z,26.60
2018-07-28T02:13:56.678Z,26.20
2018-07-28T02:16:25.014Z,26.00
2018-07-28T02:18:53.358Z,25.90
2018-07-28T02:21:21.690Z,25.80
2018-07-28T02:23:50.005Z,25.80
2018-07-28T02:26:18.311Z,25.80
2018-07-28T02:28:46.623Z,25.90
2018-07-28T02:31:14.986Z,25.70
2018-07-28T02:33:43.300Z,25.50
2018-07-28T02:36:11.713Z,25.50
2018-07-28T02:38:40.053Z,25.50
2018-07-28T02:41:08.374Z,25.50
2018-07-28T02:43:36.705Z,25.40
2018-07-28T02:46:05.126Z,25.30
2018-07-28T02:48:33.441Z,25.40
2018-07-28T02:51:01.837Z,25.40
2018-07-28T02:53:30.191Z,25.50
2018-07-28T02:55:58.492Z,25.40
2018-07-28T02:58:27.070Z,25.30
2018-07-28T03:00:55.377Z,25.30
2018-07-28T03:03:23.716Z,25.30
2018-07-28T03:05:52.095Z,25.50
2018-07-28T03:08:20.442Z,26.30
2018-07-28T03:10:48.781Z,26.00
2018-07-28T03:13:17.103Z,25.70
2018-07-28T03:15:45.414Z,26.10
2018-07-28T03:18:13.737Z,26.50
2018-07-28T03:20:42.108Z,26.40
2018-07-28T03:23:10.455Z,26.60
2018-07-28T03:25:38.753Z,26.50
2018-07-28T03:28:07.077Z,26.80
2018-07-28T03:30:35.404Z,26.70
2018-07-28T03:33:03.785Z,26.50
2018-07-28T03:35:32.132Z,26.60
2018-07-28T03:38:03.597Z,26.20
2018-07-28T03:40:31.906Z,26.00
2018-07-28T03:43:00.257Z,26.20
2018-07-28T03:45:28.581Z,26.20
2018-07-28T03:47:56.941Z,25.90
2018-07-28T03:50:25.260Z,26.30
2018-07-28T03:52:53.641Z,26.20
2018-07-28T03:55:21.952Z,26.20
2018-07-28T03:57:50.254Z,26.40
2018-07-28T04:00:18.628Z,26.20
2018-07-28T04:02:46.961Z,26.00
2018-07-28T04:05:15.339Z,26.10
2018-07-28T04:07:43.669Z,26.00
2018-07-28T04:10:12.025Z,25.80
2018-07-28T04:12:40.546Z,26.10
2018-07-28T04:15:11.264Z,26.00
2018-07-28T04:17:45.070Z,25.80
2018-07-28T04:20:13.946Z,25.60
2018-07-28T04:22:42.271Z,25.60
2018-07-28T04:25:10.693Z,25.90
2018-07-28T04:27:39.242Z,26.00
2018-07-28T04:30:07.921Z,25.90
2018-07-28T04:32:36.473Z,25.80
2018-07-28T04:35:05.551Z,25.60
2018-07-28T04:37:33.833Z,25.50
2018-07-28T04:40:02.269Z,25.50
2018-07-28T04:42:30.637Z,25.50
2018-07-28T04:45:11.203Z,25.40
2018-07-28T04:47:39.534Z,25.40
2018-07-28T04:50:07.922Z,25.40
2018-07-28T04:52:36.554Z,25.40
2018-07-28T04:55:05.405Z,25.50
2018-07-28T04:57:33.760Z,25.60
2018-07-28T05:00:02.170Z,25.70
2018-07-28T05:02:30.566Z,25.80
2018-07-28T05:04:58.913Z,25.90
2018-07-28T05:07:27.336Z,26.00
2018-07-28T05:09:55.836Z,26.00
2018-07-28T05:12:24.544Z,26.20
2018-07-28T05:14:52.938Z,26.20
2018-07-28T05:17:21.466Z,26.30
2018-07-28T05:19:49.835Z,26.40
2018-07-28T05:22:18.241Z,26.50
2018-07-28T05:24:46.649Z,26.50
2018-07-28T05:27:15.046Z,26.60
2018-07-28T05:29:43.418Z,26.60
2018-07-28T05:32:11.853Z,26.60
2018-07-28T05:34:40.187Z,26.50
2018-07-28T05:37:08.550Z,26.30
2018-07-28T05:39:36.968Z,26.50
2018-07-28T05:42:05.381Z,26.60
2018-07-28T05:47:01.838Z,26.30
2018-07-28T05:49:30.175Z,26.20
2018-07-28T05:51:58.591Z,26.10
2018-07-28T05:54:27.855Z,26.20
2018-07-28T05:56:56.217Z,26.70
2018-07-28T05:59:24.573Z,27.00
2018-07-28T06:01:53.012Z,26.70
2018-07-28T06:04:21.353Z,26.60
2018-07-28T06:06:49.686Z,26.70
2018-07-28T06:09:18.066Z,26.70
2018-07-28T06:11:46.392Z,26.60
2018-07-28T06:14:14.794Z,26.70
2018-07-28T06:16:43.222Z,26.90
2018-07-28T06:19:11.554Z,26.70
2018-07-28T06:21:39.995Z,26.50
2018-07-28T06:24:08.419Z,26.90
2018-07-28T06:26:36.837Z,26.90
2018-07-28T06:29:05.379Z,26.80
2018-07-28T06:31:33.823Z,26.80
2018-07-28T06:34:02.138Z,26.30
2018-07-28T06:36:30.579Z,26.40
2018-07-28T06:38:58.885Z,26.40
2018-07-28T06:41:27.191Z,26.10
2018-07-28T06:43:55.557Z,26.20
2018-07-28T06:46:23.940Z,26.30
2018-07-28T06:48:52.377Z,26.40
2018-07-28T06:51:20.746Z,26.20
2018-07-28T06:53:49.143Z,26.30
2018-07-28T06:56:17.397Z,26.50
2018-07-28T06:58:45.753Z,26.60
2018-07-28T07:01:14.080Z,26.90
2018-07-28T07:03:42.595Z,26.90
2018-07-28T07:06:11.036Z,27.00
2018-07-28T07:08:39.341Z,26.90
2018-07-28T07:11:07.778Z,26.80
2018-07-28T07:13:36.165Z,27.10
2018-07-28T07:16:04.601Z,26.90
2018-07-28T07:18:32.939Z,26.80
2018-07-28T07:21:01.274Z,26.70
2018-07-28T07:23:29.619Z,26.90
2018-07-28T07:25:57.998Z,27.20
2018-07-28T07:28:26.378Z,26.90
2018-07-28T07:30:54.712Z,26.70
2018-07-28T07:33:23.069Z,26.40
2018-07-28T07:35:51.460Z,26.90
2018-07-28T07:38:19.797Z,26.90
2018-07-28T07:40:48.210Z,27.40
2018-07-28T07:43:16.517Z,27.70
2018-07-28T07:45:44.827Z,27.30
2018-07-28T07:48:13.248Z,27.10
2018-07-28T07:50:41.650Z,27.00
2018-07-28T07:53:10.041Z,27.00
2018-07-28T07:55:38.396Z,27.40
2018-07-28T07:58:06.909Z,27.80
2018-07-28T08:00:35.324Z,27.90
2018-07-28T08:03:03.757Z,27.70
2018-07-28T08:05:32.130Z,27.20
2018-07-28T08:08:00.482Z,27.20
2018-07-28T08:10:29.592Z,27.20
2018-07-28T08:12:57.870Z,27.10
2018-07-28T08:15:26.232Z,27.00
2018-07-28T08:17:54.549Z,27.40
2018-07-28T08:20:22.857Z,27.00
2018-07-28T08:22:51.226Z,26.90
2018-07-28T08:25:19.579Z,27.20
2018-07-28T08:27:47.975Z,27.40
2018-07-28T08:30:16.301Z,27.40
2018-07-28T08:32:44.850Z,27.50
2018-07-28T08:35:13.393Z,27.90
2018-07-28T08:37:41.751Z,27.80
2018-07-28T08:40:11.129Z,27.90
2018-07-28T08:42:39.502Z,28.00
2018-07-28T08:45:07.820Z,28.50
2018-07-28T08:47:36.171Z,28.60
2018-07-28T08:50:04.557Z,28.40
2018-07-28T08:52:32.879Z,28.50
2018-07-28T08:55:01.345Z,28.50
2018-07-28T08:57:29.701Z,28.70
2018-07-28T08:59:58.063Z,29.00
2018-07-28T09:02:26.465Z,28.70
2018-07-28T09:04:54.970Z,28.70
2018-07-28T09:07:23.433Z,29.30
2018-07-28T09:09:52.006Z,29.00
2018-07-28T09:12:20.695Z,29.00
2018-07-28T09:14:53.197Z,29.20
2018-07-28T09:17:34.418Z,29.70
2018-07-28T09:20:02.702Z,29.50
2018-07-28T09:22:31.060Z,29.60
2018-07-28T09:24:59.381Z,30.30
2018-07-28T09:27:28.813Z,30.00
2018-07-28T09:29:57.233Z,30.10
2018-07-28T09:32:25.727Z,29.60
2018-07-28T09:34:54.008Z,29.60
2018-07-28T09:37:22.366Z,29.70
2018-07-28T09:39:50.745Z,29.60
2018-07-28T09:42:19.133Z,29.80
2018-07-28T09:44:47.556Z,30.60
2018-07-28T09:47:15.913Z,30.30
2018-07-28T09:49:44.258Z,30.00
2018-07-28T09:52:12.598Z,30.20
2018-07-28T09:54:40.917Z,30.90
2018-07-28T09:57:27.822Z,31.20
2018-07-28T09:59:56.217Z,30.50
2018-07-28T10:02:24.868Z,29.70
2018-07-28T10:04:53.540Z,29.60
2018-07-28T10:07:22.245Z,29.40
2018-07-28T10:09:50.858Z,29.30
2018-07-28T10:12:19.340Z,29.40
2018-07-28T10:14:47.695Z,29.60
2018-07-28T10:17:20.595Z,29.60
2018-07-28T10:19:49.141Z,29.60
2018-07-28T10:22:17.586Z,30.00
2018-07-28T10:24:46.100Z,30.00
2018-07-28T10:27:14.465Z,30.00
2018-07-28T10:29:42.779Z,30.70
2018-07-28T10:32:11.120Z,30.60
2018-07-28T10:34:39.463Z,30.80
2018-07-28T10:37:07.821Z,30.90
2018-07-28T10:39:36.225Z,30.90
2018-07-28T10:42:04.597Z,30.90
2018-07-28T10:44:32.974Z,31.40
2018-07-28T10:47:01.397Z,31.20
2018-07-28T10:49:29.754Z,30.80
2018-07-28T10:51:58.208Z,30.80
2018-07-28T10:54:27.149Z,31.30
2018-07-28T10:56:55.609Z,31.50
2018-07-28T10:59:24.789Z,30.80
2018-07-28T11:01:54.125Z,31.00
2018-07-28T11:04:22.862Z,31.00
2018-07-28T11:06:52.181Z,30.60
2018-07-28T11:09:20.522Z,30.80
2018-07-28T11:11:48.814Z,31.00
2018-07-28T11:14:17.178Z,30.30
2018-07-28T11:16:45.555Z,29.70
2018-07-28T11:19:14.045Z,29.80
2018-07-28T11:21:42.385Z,30.00
2018-07-28T11:24:10.765Z,30.50
2018-07-28T11:26:39.145Z,31.00
2018-07-28T11:29:07.628Z,31.30
2018-07-28T11:31:47.282Z,31.20
2018-07-28T11:34:26.754Z,30.90
2018-07-28T11:37:06.591Z,30.80
2018-07-28T11:39:46.264Z,31.50
2018-07-28T11:42:26.149Z,31.00
2018-07-28T11:45:04.868Z,31.20
2018-07-28T11:47:33.622Z,31.30
2018-07-28T11:50:01.964Z,31.30
2018-07-28T11:52:30.286Z,31.30
2018-07-28T11:54:58.616Z,31.00
2018-07-28T11:57:26.971Z,31.20
2018-07-28T12:02:23.754Z,31.70
2018-07-28T12:04:52.105Z,31.60
2018-07-28T12:07:20.517Z,31.30
2018-07-28T12:09:48.838Z,31.80
2018-07-28T12:12:17.604Z,31.80
2018-07-28T12:14:45.979Z,32.00
2018-07-28T12:17:15.174Z,32.30
2018-07-28T12:19:43.520Z,31.80
2018-07-28T12:22:12.902Z,32.00
2018-07-28T12:24:41.302Z,32.20
2018-07-28T12:27:09.618Z,32.20
2018-07-28T12:29:37.954Z,31.60
2018-07-28T12:32:06.362Z,31.30
2018-07-28T12:34:35.066Z,31.60
2018-07-28T12:37:03.684Z,32.00
2018-07-28T12:39:32.101Z,32.00
2018-07-28T12:42:00.538Z,32.40
2018-07-28T12:44:29.349Z,32.20
2018-07-28T12:46:57.710Z,32.00
2018-07-28T12:49:26.108Z,32.00
2018-07-28T12:51:54.439Z,31.70
2018-07-28T12:54:22.878Z,31.20
2018-07-28T12:56:51.231Z,31.20
2018-07-28T12:59:19.835Z,31.70
2018-07-28T13:01:48.178Z,32.50
2018-07-28T13:04:16.667Z,32.80
2018-07-28T13:06:45.014Z,33.30
2018-07-28T13:09:13.775Z,33.20
2018-07-28T13:11:42.521Z,32.80
2018-07-28T13:14:11.414Z,32.50
2018-07-28T13:16:39.792Z,32.70
2018-07-28T13:19:08.180Z,32.60
2018-07-28T13:21:36.565Z,32.00
2018-07-28T13:24:04.999Z,31.10
2018-07-28T13:26:33.341Z,31.30
2018-07-28T13:29:01.976Z,31.70
2018-07-28T13:31:30.281Z,31.80
2018-07-28T13:33:58.721Z,31.90
2018-07-28T13:36:27.072Z,32.40
2018-07-28T13:41:23.473Z,32.80
2018-07-28T13:43:51.871Z,32.20
2018-07-28T13:46:20.218Z,31.80
2018-07-28T13:48:48.624Z,31.50
2018-07-28T13:51:16.998Z,31.50
2018-07-28T13:53:45.502Z,31.10
2018-07-28T13:56:16.007Z,31.20
2018-07-28T13:58:44.404Z,31.70
2018-07-28T14:01:12.800Z,31.40
2018-07-28T14:03:41.281Z,31.30
2018-07-28T14:06:10.085Z,30.80
2018-07-28T14:08:38.445Z,30.50
2018-07-28T14:11:07.301Z,30.70
2018-07-28T14:13:35.768Z,31.10
2018-07-28T14:16:04.156Z,31.50
2018-07-28T14:18:32.973Z,31.30
2018-07-28T14:21:01.733Z,30.80
2018-07-28T14:23:30.414Z,30.20
2018-07-28T14:26:01.009Z,29.90
2018-07-28T14:28:32.965Z,29.30
2018-07-28T14:31:01.847Z,29.00
2018-07-28T14:33:30.143Z,29.40
2018-07-28T14:35:58.609Z,29.50
2018-07-28T14:38:27.182Z,29.40
2018-07-28T14:40:56.276Z,29.30
2018-07-28T14:43:24.822Z,29.20
2018-07-28T14:45:53.650Z,29.50
2018-07-28T14:48:22.033Z,29.90
2018-07-28T14:50:50.589Z,30.60
2018-07-28T14:53:18.933Z,30.50
2018-07-28T14:55:47.663Z,29.90
2018-07-28T14:58:16.302Z,29.80
2018-07-28T15:00:44.713Z,29.70
2018-07-28T15:03:13.133Z,29.90
2018-07-28T15:05:41.522Z,29.50
2018-07-28T15:08:09.858Z,28.80
2018-07-28T15:10:38.233Z,28.50
2018-07-28T15:13:06.619Z,28.30
2018-07-28T15:15:35.026Z,28.20
2018-07-28T15:18:03.592Z,28.10
2018-07-28T15:20:32.045Z,28.10
2018-07-28T15:23:00.525Z,28.50
2018-07-28T15:25:28.886Z,28.50
2018-07-28T15:27:57.318Z,28.60
2018-07-28T15:30:25.642Z,28.60
2018-07-28T15:32:53.985Z,28.50
2018-07-28T15:35:22.561Z,28.50
2018-07-28T15:37:51.011Z,28.60
2018-07-28T15:40:19.373Z,28.80
2018-07-28T15:42:48.304Z,29.40
2018-07-28T15:45:16.746Z,30.00
2018-07-28T15:47:45.132Z,30.40
2018-07-28T15:50:13.492Z,31.60
2018-07-28T15:52:41.796Z,32.00
2018-07-28T15:55:10.587Z,32.50
2018-07-28T15:57:39.072Z,33.80
2018-07-28T16:02:38.651Z,32.20
2018-07-28T16:05:09.305Z,31.60
2018-07-28T16:07:37.641Z,32.20
2018-07-28T16:10:07.058Z,32.20
2018-07-28T16:12:35.546Z,32.10
2018-07-28T16:15:05.439Z,32.00
2018-07-28T16:17:34.061Z,32.20
2018-07-28T16:20:02.668Z,33.60
2018-07-28T16:22:30.948Z,33.50
2018-07-28T16:24:59.330Z,33.50
2018-07-28T16:27:27.787Z,32.70
2018-07-28T16:29:57.589Z,31.80
2018-07-28T16:32:26.024Z,32.00
2018-07-28T16:34:55.475Z,31.40
2018-07-28T16:37:24.697Z,32.10
2018-07-28T16:40:01.886Z,34.00
2018-07-28T16:42:30.408Z,34.60
2018-07-28T16:44:58.696Z,34.20
2018-07-28T16:47:27.005Z,33.00
2018-07-28T16:49:55.309Z,32.20
2018-07-28T16:52:23.728Z,31.00
2018-07-28T16:54:52.021Z,30.50
2018-07-28T16:57:20.681Z,30.40
2018-07-28T16:59:49.014Z,30.30
2018-07-28T17:02:17.389Z,30.00
2018-07-28T17:04:45.684Z,30.30
2018-07-28T17:07:14.058Z,30.20
2018-07-28T17:12:10.350Z,30.10
2018-07-28T17:14:38.738Z,30.20
2018-07-28T17:17:07.060Z,30.20
2018-07-28T17:19:35.390Z,30.00
2018-07-28T17:22:03.929Z,29.40
2018-07-28T17:24:32.249Z,29.10
2018-07-28T17:27:00.568Z,28.60
2018-07-28T17:29:28.947Z,28.90
2018-07-28T17:31:57.274Z,29.30
2018-07-28T17:34:25.593Z,29.20
2018-07-28T17:36:53.900Z,28.80
2018-07-28T17:39:22.242Z,28.40
2018-07-28T17:41:50.552Z,28.00
2018-07-28T17:44:18.856Z,28.30
2018-07-28T17:46:47.170Z,27.90
2018-07-28T17:49:15.501Z,28.20
2018-07-28T17:51:43.837Z,28.40
2018-07-28T17:54:12.196Z,28.20
2018-07-28T17:56:40.489Z,28.20
2018-07-28T17:59:08.889Z,28.20
2018-07-28T18:01:37.188Z,28.10
2018-07-28T18:04:05.589Z,28.10
2018-07-28T18:06:33.972Z,28.10
2018-07-28T18:09:02.397Z,28.40
2018-07-28T18:11:30.876Z,28.40
2018-07-28T18:13:59.228Z,28.60
2018-07-28T18:16:27.545Z,28.70
2018-07-28T18:18:55.861Z,28.50
2018-07-28T18:21:24.258Z,28.80
2018-07-28T18:23:52.653Z,28.70
2018-07-28T18:26:20.877Z,28.20
2018-07-28T18:28:49.966Z,28.60
2018-07-28T18:31:18.284Z,28.30
2018-07-28T18:33:46.603Z,28.30
2018-07-28T18:36:14.933Z,28.20
2018-07-28T18:38:43.276Z,28.40
2018-07-28T18:41:11.601Z,28.00
2018-07-28T18:43:39.925Z,27.80
2018-07-28T18:46:08.278Z,27.70
2018-07-28T18:48:36.656Z,27.60
2018-07-28T18:51:05.009Z,27.40
2018-07-28T18:53:33.382Z,27.30
2018-07-28T18:56:01.689Z,27.10
2018-07-28T18:58:30.059Z,27.20
2018-07-28T19:00:58.372Z,27.20
2018-07-28T19:03:26.822Z,27.50
2018-07-28T19:05:55.212Z,27.40
2018-07-28T19:08:23.606Z,27.40
2018-07-28T19:10:53.553Z,27.40
2018-07-28T19:13:27.627Z,27.50
2018-07-28T19:15:56.288Z,27.40
2018-07-28T19:18:30.095Z,27.30
2018-07-28T19:21:01.916Z,27.10
2018-07-28T19:23:38.322Z,27.00
2018-07-28T19:26:08.723Z,27.00
2018-07-28T19:28:43.092Z,27.00
2018-07-28T19:31:14.110Z,26.90
2018-07-28T19:33:44.072Z,26.60
2018-07-28T19:36:20.680Z,26.80
2018-07-28T19:38:51.382Z,26.70
2018-07-28T19:41:20.002Z,26.40
2018-07-28T19:43:48.417Z,26.30
2018-07-28T19:46:16.903Z,26.00
2018-07-28T19:48:45.428Z,26.10
2018-07-28T19:51:13.925Z,26.20
2018-07-28T19:53:42.325Z,26.20
2018-07-28T19:56:10.668Z,26.30
2018-07-28T19:58:38.955Z,26.50
2018-07-28T20:01:07.397Z,26.70
2018-07-28T20:03:35.996Z,26.60
2018-07-28T20:06:04.561Z,26.50
2018-07-28T20:08:33.008Z,26.70
2018-07-28T20:11:01.649Z,26.80
2018-07-28T20:13:30.001Z,26.70
2018-07-28T20:15:58.321Z,26.40
2018-07-28T20:20:54.718Z,26.70
2018-07-28T20:23:23.070Z,26.70
2018-07-28T20:25:51.509Z,26.80
2018-07-28T20:28:19.909Z,26.80
2018-07-28T20:33:16.229Z,26.60
2018-07-28T20:35:44.594Z,26.40
2018-07-28T20:38:13.110Z,26.30
2018-07-28T20:40:43.301Z,26.00
2018-07-28T20:43:12.198Z,26.00
2018-07-28T20:45:40.775Z,25.90
2018-07-28T20:50:37.418Z,25.80
2018-07-28T20:53:05.928Z,25.70
2018-07-28T20:55:35.084Z,25.50
2018-07-28T20:58:03.485Z,25.50
2018-07-28T21:00:32.345Z,25.40
2018-07-28T21:03:01.116Z,25.30
2018-07-28T21:05:30.032Z,25.00
2018-07-28T21:07:59.766Z,25.20
2018-07-28T21:10:28.494Z,25.10
2018-07-28T21:12:56.907Z,24.90
2018-07-28T21:15:25.202Z,25.00
2018-07-28T21:17:53.819Z,25.00
2018-07-28T21:20:22.473Z,25.10
2018-07-28T21:22:51.906Z,25.10
2018-07-28T21:25:21.570Z,25.20
2018-07-28T21:27:50.510Z,25.00
2018-07-28T21:30:21.379Z,24.90
2018-07-28T21:32:50.446Z,25.00
2018-07-28T21:35:19.124Z,25.10
2018-07-28T21:37:47.787Z,24.90
2018-07-28T21:40:16.631Z,25.00
2018-07-28T21:42:45.779Z,24.80
2018-07-28T21:45:15.180Z,24.50
2018-07-28T21:47:44.034Z,24.40
2018-07-28T21:50:12.506Z,24.40
2018-07-28T21:52:41.067Z,24.60
2018-07-28T21:55:09.670Z,24.60
2018-07-28T21:57:38.006Z,24.60
2018-07-28T22:00:08.776Z,24.50
2018-07-28T22:05:05.842Z,24.60
2018-07-28T22:07:34.233Z,24.60
2018-07-28T22:10:02.713Z,24.50
2018-07-28T22:12:32.353Z,24.20
2018-07-28T22:15:00.937Z,24.10
2018-07-28T22:17:29.327Z,24.10
2018-07-28T22:19:58.885Z,24.20
2018-07-28T22:22:27.725Z,24.30
2018-07-28T22:24:56.166Z,24.30
2018-07-28T22:27:24.857Z,24.40
2018-07-28T22:29:53.710Z,24.40
2018-07-28T22:32:22.717Z,24.50
2018-07-28T22:34:51.482Z,24.30
2018-07-28T22:37:21.221Z,24.30
2018-07-28T22:39:50.122Z,24.10
2018-07-28T22:42:19.080Z,24.30
2018-07-28T22:44:47.454Z,24.20
2018-07-28T22:47:16.006Z,24.10
2018-07-28T22:49:48.492Z,24.20
2018-07-28T22:52:16.906Z,24.10
2018-07-28T22:54:45.460Z,24.00
2018-07-28T22:57:13.897Z,24.00
2018-07-28T22:59:42.251Z,24.00
2018-07-28T23:02:10.589Z,23.70
2018-07-28T23:04:38.885Z,23.90
2018-07-28T23:07:07.238Z,23.90
2018-07-28T23:09:35.593Z,23.90
2018-07-28T23:12:03.981Z,23.70
2018-07-28T23:14:32.310Z,23.50
2018-07-28T23:17:00.660Z,23.40
2018-07-28T23:19:29.022Z,23.70
2018-07-28T23:21:57.357Z,23.90
2018-07-28T23:24:25.711Z,24.10
2018-07-28T23:26:54.081Z,23.90
2018-07-28T23:29:22.450Z,23.90
2018-07-28T23:31:51.369Z,23.70
2018-07-28T23:34:19.701Z,23.50
2018-07-28T23:36:48.073Z,23.30
2018-07-28T23:39:16.426Z,23.30
2018-07-28T23:41:44.737Z,23.50
2018-07-28T23:44:13.098Z,23.30
2018-07-28T23:46:41.465Z,23.50
2018-07-28T23:49:09.767Z,23.20
2018-07-28T23:51:38.158Z,23.20
2018-07-28T23:54:06.557Z,23.40
2018-07-28T23:56:34.857Z,23.50
2018-07-28T23:59:03.553Z,23.30
